Time;durP1;ratioP1;P1;durP2;ratioP2;P2;SDS_P1;SDS_P2;PMS_P1;PMS_P2;Temp;Humidity;BMP_temperature;BMP_pressure;BME280_temperature;BME280_humidity;BME280_pressure;Samples;Min_cycle;Max_cycle;Signal;HPM_P1;HPM_P2
2023/07/20 00:00:46;;;;;;;0.00;0.00;;;15.30;99.90;;;;;;5030934;28;20049;-68
2023/07/20 00:03:16;;;;;;;0.00;0.00;;;15.30;99.90;;;;;;5028208;28;20042;-68
2023/07/20 00:05:48;;;;;;;0.08;0.03;;;15.20;99.90;;;;;;5023753;28;20047;-68
2023/07/20 00:08:13;;;;;;;0.00;0.00;;;15.20;99.90;;;;;;5028662;28;20438;-69
2023/07/20 00:10:41;;;;;;;0.00;0.00;;;15.30;99.90;;;;;;5029625;28;20053;-68
2023/07/20 00:13:06;;;;;;;3.47;0.57;;;15.20;99.90;;;;;;5024484;28;20485;-69
2023/07/20 00:15:32;;;;;;;0.00;0.00;;;15.20;99.90;;;;;;5024360;28;20052;-68
2023/07/20 00:17:58;;;;;;;0.00;0.00;;;15.10;99.90;;;;;;5029087;28;20569;-69
2023/07/20 00:20:25;;;;;;;0.00;0.00;;;15.10;99.90;;;;;;5021294;28;20045;-68
2023/07/20 00:22:51;;;;;;;0.05;0.05;;;15.20;99.90;;;;;;5023895;28;20041;-68
2023/07/20 00:25:17;;;;;;;0.10;0.10;;;15.10;99.90;;;;;;5022853;28;20664;-69
2023/07/20 00:27:43;;;;;;;0.00;0.00;;;15.10;99.90;;;;;;5028402;28;20033;-69
2023/07/20 00:30:09;;;;;;;0.00;0.00;;;15.10;99.90;;;;;;5021825;28;20049;-69
2023/07/20 00:32:34;;;;;;;0.05;0.05;;;15.00;99.90;;;;;;5031185;28;20065;-68
2023/07/20 00:35:00;;;;;;;0.22;0.22;;;15.00;99.90;;;;;;5027584;28;20056;-68
2023/07/20 00:37:25;;;;;;;0.00;0.00;;;14.90;99.90;;;;;;5020611;28;20041;-68
2023/07/20 00:39:51;;;;;;;0.00;0.00;;;14.90;99.90;;;;;;5021299;28;20044;-68
2023/07/20 00:42:17;;;;;;;0.15;0.15;;;14.90;99.90;;;;;;5023282;28;20482;-68
2023/07/20 00:44:43;;;;;;;0.00;0.00;;;14.90;99.90;;;;;;5023879;28;20053;-68
2023/07/20 00:47:08;;;;;;;0.00;0.00;;;14.80;99.90;;;;;;5023136;28;20049;-69
2023/07/20 00:49:34;;;;;;;0.20;0.10;;;14.80;99.90;;;;;;5020715;28;20053;-69
2023/07/20 00:52:03;;;;;;;0.10;0.10;;;14.70;99.90;;;;;;5027974;28;20045;-68
2023/07/20 00:54:29;;;;;;;0.03;0.03;;;14.70;99.90;;;;;;5029684;28;20821;-68
2023/07/20 00:56:55;;;;;;;0.00;0.00;;;14.70;99.90;;;;;;5022250;28;20120;-68
2023/07/20 00:59:21;;;;;;;0.10;0.10;;;14.70;99.90;;;;;;5027168;28;20120;-68
2023/07/20 01:01:47;;;;;;;0.00;0.00;;;14.70;99.90;;;;;;5025166;28;20077;-69
2023/07/20 01:04:13;;;;;;;0.10;0.10;;;14.70;99.90;;;;;;5023493;28;20191;-68
2023/07/20 01:06:48;;;;;;;0.30;0.30;;;14.60;99.90;;;;;;5029983;28;20384;-68
2023/07/20 01:09:18;;;;;;;0.00;0.00;;;14.50;99.90;;;;;;5020728;28;20054;-68
2023/07/20 01:11:52;;;;;;;0.00;0.00;;;14.50;99.90;;;;;;5022809;28;20473;-68
2023/07/20 01:14:18;;;;;;;0.00;0.00;;;14.50;99.90;;;;;;5020977;28;20106;-68
2023/07/20 01:16:44;;;;;;;0.00;0.00;;;14.50;99.90;;;;;;5027116;28;20136;-68
2023/07/20 01:19:10;;;;;;;0.00;0.00;;;14.40;99.90;;;;;;5025062;28;20042;-68
2023/07/20 01:22:08;;;;;;;0.00;0.00;;;14.40;99.90;;;;;;5019969;28;20037;-69
2023/07/20 01:24:58;;;;;;;0.10;0.10;;;14.40;99.90;;;;;;5002978;28;20060;-68
2023/07/20 01:28:01;;;;;;;0.20;0.20;;;14.40;99.90;;;;;;5023551;28;20049;-68
2023/07/20 01:30:43;;;;;;;0.00;0.00;;;14.30;99.90;;;;;;5029848;28;20475;-68
2023/07/20 01:33:11;;;;;;;0.00;0.00;;;14.30;99.90;;;;;;5026947;28;21568;-69
2023/07/20 01:35:40;;;;;;;0.00;0.00;;;14.30;99.90;;;;;;5024559;28;20037;-68
2023/07/20 01:38:08;;;;;;;0.10;0.10;;;14.20;99.90;;;;;;5021025;28;20053;-69
2023/07/20 01:40:35;;;;;;;0.00;0.00;;;14.30;99.90;;;;;;5022010;28;20037;-68
2023/07/20 01:43:01;;;;;;;0.00;0.00;;;14.20;99.90;;;;;;5021979;28;20137;-68
2023/07/20 01:45:27;;;;;;;0.03;0.03;;;14.20;99.90;;;;;;5021183;28;20384;-68
2023/07/20 01:47:53;;;;;;;0.00;0.00;;;14.20;99.90;;;;;;5022961;28;20086;-68
2023/07/20 01:50:18;;;;;;;0.00;0.00;;;14.20;99.90;;;;;;5027125;28;20573;-68
2023/07/20 01:52:44;;;;;;;0.00;0.00;;;14.20;99.90;;;;;;5021857;28;20046;-68
2023/07/20 01:55:09;;;;;;;0.10;0.10;;;14.10;99.90;;;;;;5021560;28;20045;-68
2023/07/20 01:57:35;;;;;;;0.00;0.00;;;14.20;99.90;;;;;;5025113;28;20084;-69
2023/07/20 02:00:01;;;;;;;0.00;0.00;;;14.10;99.90;;;;;;5023448;28;20041;-68
2023/07/20 02:02:30;;;;;;;0.08;0.08;;;14.00;99.90;;;;;;5016176;28;20517;-68
2023/07/20 02:04:55;;;;;;;0.00;0.00;;;14.10;99.90;;;;;;5021932;28;20133;-68
2023/07/20 02:07:21;;;;;;;0.00;0.00;;;14.00;99.90;;;;;;5016833;28;20206;-68
2023/07/20 02:09:47;;;;;;;0.00;0.00;;;14.00;99.90;;;;;;5019479;28;20053;-68
2023/07/20 02:12:12;;;;;;;0.20;0.20;;;14.10;99.90;;;;;;5031923;28;20049;-68
2023/07/20 02:14:38;;;;;;;0.00;0.00;;;14.10;99.90;;;;;;5021681;28;20038;-68
2023/07/20 02:17:04;;;;;;;0.10;0.10;;;14.10;99.90;;;;;;5025557;28;20053;-68
2023/07/20 02:19:30;;;;;;;0.00;0.00;;;14.00;99.90;;;;;;5022957;28;20107;-68
2023/07/20 02:21:56;;;;;;;0.10;0.10;;;14.00;99.90;;;;;;5027981;28;20056;-68
2023/07/20 02:24:21;;;;;;;0.00;0.00;;;14.00;99.90;;;;;;5018314;28;20042;-68
2023/07/20 02:26:47;;;;;;;0.10;0.10;;;14.00;99.90;;;;;;5022795;28;20077;-69
2023/07/20 02:29:13;;;;;;;0.00;0.00;;;14.00;99.90;;;;;;5027015;28;20129;-69
2023/07/20 02:31:39;;;;;;;0.00;0.00;;;14.00;99.90;;;;;;5023414;28;20095;-69
2023/07/20 02:34:05;;;;;;;0.00;0.00;;;13.90;99.90;;;;;;5027095;28;20501;-69
2023/07/20 02:36:32;;;;;;;0.00;0.00;;;13.90;99.90;;;;;;5019636;28;20501;-69
2023/07/20 02:38:58;;;;;;;0.10;0.10;;;14.00;99.90;;;;;;5021290;28;20121;-69
2023/07/20 02:41:24;;;;;;;0.00;0.00;;;13.90;99.90;;;;;;5022834;28;20045;-69
2023/07/20 02:43:50;;;;;;;0.00;0.00;;;13.80;99.90;;;;;;5015756;28;20068;-70
2023/07/20 02:46:15;;;;;;;0.22;0.20;;;13.90;99.90;;;;;;5017750;28;20060;-69
2023/07/20 02:48:41;;;;;;;0.00;0.00;;;13.90;99.90;;;;;;5024816;28;20046;-69
2023/07/20 02:51:07;;;;;;;0.00;0.00;;;13.90;99.90;;;;;;5020365;28;20038;-70
2023/07/20 02:53:33;;;;;;;0.00;0.00;;;13.80;99.90;;;;;;5023843;28;20048;-70
2023/07/20 02:55:59;;;;;;;0.30;0.30;;;13.80;99.90;;;;;;5026569;28;20546;-70
2023/07/20 02:58:24;;;;;;;0.00;0.00;;;13.70;99.90;;;;;;5022919;28;20077;-69
2023/07/20 03:00:50;;;;;;;0.00;0.00;;;13.70;99.90;;;;;;5020159;28;20441;-69
2023/07/20 03:03:15;;;;;;;0.00;0.00;;;13.70;99.90;;;;;;5025189;28;20472;-69
2023/07/20 03:05:41;;;;;;;0.10;0.10;;;13.70;99.90;;;;;;5030277;28;20477;-69
2023/07/20 03:08:07;;;;;;;0.00;0.00;;;13.60;99.90;;;;;;5020867;28;20037;-69
2023/07/20 03:10:38;;;;;;;0.03;0.03;;;13.60;99.90;;;;;;5022666;28;20057;-69
2023/07/20 03:13:03;;;;;;;0.00;0.00;;;13.60;99.90;;;;;;5025567;28;20037;-69
2023/07/20 03:15:29;;;;;;;0.00;0.00;;;13.60;99.90;;;;;;5027503;28;21806;-69
2023/07/20 03:17:54;;;;;;;0.00;0.00;;;13.70;99.90;;;;;;5027262;28;20045;-69
2023/07/20 03:20:20;;;;;;;0.30;0.30;;;13.70;99.90;;;;;;5023999;28;20120;-69
2023/07/20 03:22:46;;;;;;;0.00;0.00;;;13.70;99.90;;;;;;5028903;28;20083;-69
2023/07/20 03:25:11;;;;;;;0.10;0.10;;;13.80;99.90;;;;;;5026516;28;20049;-69
2023/07/20 03:27:37;;;;;;;0.05;0.05;;;13.80;99.90;;;;;;5024995;28;20045;-69
2023/07/20 03:30:03;;;;;;;2.95;2.67;;;13.70;99.90;;;;;;5024061;28;20040;-69
2023/07/20 03:32:29;;;;;;;0.00;0.00;;;13.70;99.90;;;;;;5014909;28;20148;-70
2023/07/20 03:34:54;;;;;;;0.00;0.00;;;13.60;99.90;;;;;;5028312;28;22100;-69
2023/07/20 03:37:20;;;;;;;0.00;0.00;;;13.60;99.90;;;;;;5016645;28;20069;-69
2023/07/20 03:39:46;;;;;;;0.00;0.00;;;13.60;99.90;;;;;;5027954;28;20042;-69
2023/07/20 03:42:11;;;;;;;0.00;0.00;;;13.50;99.90;;;;;;5025182;28;20077;-69
2023/07/20 03:44:37;;;;;;;0.20;0.20;;;13.60;99.90;;;;;;5024808;28;20068;-68
2023/07/20 03:47:04;;;;;;;0.05;0.05;;;13.60;99.90;;;;;;5020798;28;20045;-69
2023/07/20 03:49:30;;;;;;;0.00;0.00;;;13.60;99.90;;;;;;5021014;28;20068;-68
2023/07/20 03:51:56;;;;;;;0.10;0.10;;;13.60;99.90;;;;;;5018022;28;20136;-69
2023/07/20 03:54:21;;;;;;;0.00;0.00;;;13.50;99.90;;;;;;5023268;28;20417;-69
2023/07/20 03:56:47;;;;;;;0.00;0.00;;;13.50;99.90;;;;;;5027468;28;20087;-69
2023/07/20 03:59:12;;;;;;;0.17;0.17;;;13.50;99.90;;;;;;5023062;28;20575;-69
2023/07/20 04:01:39;;;;;;;0.03;0.03;;;13.50;99.90;;;;;;5030745;28;20040;-69
2023/07/20 04:04:07;;;;;;;0.10;0.10;;;13.40;99.90;;;;;;5025194;28;20396;-69
2023/07/20 04:06:33;;;;;;;0.00;0.00;;;13.40;99.90;;;;;;5019300;28;20046;-68
2023/07/20 04:08:58;;;;;;;0.00;0.00;;;13.40;99.90;;;;;;5022235;28;20026;-69
2023/07/20 04:11:24;;;;;;;0.38;0.30;;;13.40;99.90;;;;;;5027282;28;20041;-69
2023/07/20 04:13:50;;;;;;;0.10;0.10;;;13.40;99.90;;;;;;5026239;28;20585;-69
2023/07/20 04:16:15;;;;;;;0.00;0.00;;;13.50;99.90;;;;;;5028749;28;20064;-68
2023/07/20 04:18:41;;;;;;;0.00;0.00;;;13.50;99.90;;;;;;5026284;28;20048;-69
2023/07/20 04:21:08;;;;;;;0.00;0.00;;;13.50;99.90;;;;;;5026298;28;20523;-68
2023/07/20 04:23:35;;;;;;;0.10;0.10;;;13.50;99.90;;;;;;5029465;28;20072;-69
2023/07/20 04:26:01;;;;;;;0.00;0.00;;;13.50;99.90;;;;;;5019653;28;20053;-69
2023/07/20 04:28:27;;;;;;;0.00;0.00;;;13.50;99.90;;;;;;5026875;28;20401;-69
2023/07/20 04:30:53;;;;;;;0.00;0.00;;;13.60;99.90;;;;;;5021942;28;20041;-68
2023/07/20 04:33:18;;;;;;;0.00;0.00;;;13.60;99.90;;;;;;5026920;28;20135;-68
2023/07/20 04:35:53;;;;;;;0.00;0.00;;;13.60;99.90;;;;;;5027704;28;20053;-69
2023/07/20 04:38:20;;;;;;;0.30;0.30;;;13.70;99.90;;;;;;5029930;28;20064;-69
2023/07/20 04:40:47;;;;;;;0.00;0.00;;;13.70;99.90;;;;;;5019240;28;20128;-69
2023/07/20 04:43:14;;;;;;;0.00;0.00;;;13.70;99.90;;;;;;5026768;28;20052;-69
2023/07/20 04:45:40;;;;;;;0.00;0.00;;;13.70;99.90;;;;;;5025414;28;20726;-68
2023/07/20 04:48:10;;;;;;;0.00;0.00;;;13.70;99.90;;;;;;5023156;28;20041;-68
2023/07/20 04:50:35;;;;;;;0.00;0.00;;;13.70;99.90;;;;;;5021308;28;20069;-69
2023/07/20 04:53:01;;;;;;;0.55;0.45;;;13.80;99.90;;;;;;5029332;28;20164;-68
2023/07/20 04:55:27;;;;;;;0.00;0.00;;;13.80;99.90;;;;;;5027084;28;20041;-69
2023/07/20 04:57:53;;;;;;;0.55;0.55;;;13.90;99.90;;;;;;5020444;28;20052;-68
2023/07/20 05:00:19;;;;;;;0.30;0.20;;;13.90;99.90;;;;;;5030380;28;20397;-69
2023/07/20 05:02:47;;;;;;;0.10;0.10;;;13.90;99.90;;;;;;5026311;28;20045;-69
2023/07/20 05:05:13;;;;;;;0.08;0.08;;;14.00;99.90;;;;;;5030950;28;20124;-69
2023/07/20 05:07:38;;;;;;;0.00;0.00;;;14.00;99.90;;;;;;5019000;28;20120;-69
2023/07/20 05:10:04;;;;;;;0.00;0.00;;;14.10;99.90;;;;;;5023305;28;20046;-68
2023/07/20 05:12:30;;;;;;;0.10;0.10;;;14.10;99.90;;;;;;5020086;28;20504;-68
2023/07/20 05:14:56;;;;;;;0.10;0.10;;;14.10;99.90;;;;;;5027024;28;20049;-69
2023/07/20 05:17:21;;;;;;;0.88;0.85;;;14.20;99.90;;;;;;5024372;28;20042;-68
2023/07/20 05:19:47;;;;;;;0.95;0.30;;;14.20;99.90;;;;;;5018954;28;20045;-69
2023/07/20 05:22:14;;;;;;;0.00;0.00;;;14.30;99.90;;;;;;5024344;28;20069;-69
2023/07/20 05:24:39;;;;;;;0.10;0.10;;;14.40;99.90;;;;;;5024931;28;20041;-69
2023/07/20 05:27:05;;;;;;;0.10;0.10;;;14.40;99.90;;;;;;5020882;28;20042;-69
2023/07/20 05:29:31;;;;;;;0.00;0.00;;;14.50;99.90;;;;;;5026933;28;20456;-69
2023/07/20 05:31:57;;;;;;;0.00;0.00;;;14.70;99.90;;;;;;5028479;28;20061;-69
2023/07/20 05:34:23;;;;;;;0.00;0.00;;;14.80;99.90;;;;;;5026335;28;20416;-69
2023/07/20 05:36:49;;;;;;;0.00;0.00;;;14.80;99.90;;;;;;5025271;28;20768;-69
2023/07/20 05:39:16;;;;;;;0.63;0.63;;;14.80;99.90;;;;;;5028400;28;20555;-69
2023/07/20 05:41:42;;;;;;;0.10;0.10;;;14.90;99.90;;;;;;5013217;28;20052;-68
2023/07/20 05:44:08;;;;;;;0.17;0.15;;;15.00;99.90;;;;;;5027473;28;20034;-69
2023/07/20 05:46:33;;;;;;;0.00;0.00;;;15.10;99.90;;;;;;5028043;28;20046;-69
2023/07/20 05:48:59;;;;;;;0.00;0.00;;;15.10;99.90;;;;;;5014342;28;20030;-69
2023/07/20 05:51:24;;;;;;;0.10;0.10;;;15.10;99.90;;;;;;5024683;28;20122;-68
2023/07/20 05:53:50;;;;;;;0.10;0.10;;;15.20;99.90;;;;;;5024721;28;20053;-69
2023/07/20 05:56:16;;;;;;;0.00;0.00;;;15.30;99.90;;;;;;5026669;28;20077;-69
2023/07/20 05:58:42;;;;;;;0.15;0.15;;;15.30;99.90;;;;;;5027262;28;20060;-69
2023/07/20 06:01:08;;;;;;;0.10;0.10;;;15.40;99.90;;;;;;5026318;28;20501;-69
2023/07/20 06:03:34;;;;;;;0.00;0.00;;;15.40;99.90;;;;;;5025116;28;20113;-69
2023/07/20 06:06:04;;;;;;;0.05;0.05;;;15.40;99.90;;;;;;5014896;28;20042;-69
2023/07/20 06:08:30;;;;;;;0.00;0.00;;;15.40;99.90;;;;;;5020073;28;20042;-69
2023/07/20 06:10:57;;;;;;;0.00;0.00;;;15.50;99.90;;;;;;5018633;28;20054;-68
2023/07/20 06:13:23;;;;;;;0.00;0.00;;;15.50;99.90;;;;;;5021839;28;20041;-69
2023/07/20 06:15:49;;;;;;;0.00;0.00;;;15.50;99.90;;;;;;5022070;28;20057;-69
2023/07/20 06:18:14;;;;;;;0.00;0.00;;;15.60;99.90;;;;;;5027809;28;20047;-68
2023/07/20 06:20:40;;;;;;;0.00;0.00;;;15.50;99.90;;;;;;5023672;28;20131;-68
2023/07/20 06:23:06;;;;;;;0.00;0.00;;;15.60;99.90;;;;;;5013198;28;20061;-68
2023/07/20 06:25:32;;;;;;;0.00;0.00;;;15.70;99.90;;;;;;5023677;28;20041;-69
2023/07/20 06:27:57;;;;;;;0.00;0.00;;;15.70;99.90;;;;;;5023320;28;20057;-69
2023/07/20 06:30:24;;;;;;;0.00;0.00;;;15.80;99.90;;;;;;5018495;28;20045;-69
2023/07/20 06:32:49;;;;;;;0.00;0.00;;;15.80;99.90;;;;;;5023214;28;20057;-69
2023/07/20 06:35:16;;;;;;;0.00;0.00;;;15.90;99.90;;;;;;5020343;28;20374;-68
2023/07/20 06:37:42;;;;;;;0.00;0.00;;;15.90;99.90;;;;;;5020827;28;20049;-68
2023/07/20 06:40:11;;;;;;;0.00;0.00;;;15.90;99.90;;;;;;5026895;28;20084;-68
2023/07/20 06:42:36;;;;;;;0.10;0.10;;;16.00;99.90;;;;;;5023593;28;20049;-68
2023/07/20 06:45:02;;;;;;;0.00;0.00;;;16.10;99.90;;;;;;5024743;28;20088;-68
2023/07/20 06:47:28;;;;;;;0.00;0.00;;;16.10;99.90;;;;;;5026101;28;20116;-68
2023/07/20 06:49:54;;;;;;;0.00;0.00;;;16.20;99.90;;;;;;5023270;28;20045;-68
2023/07/20 06:52:19;;;;;;;0.22;0.22;;;16.30;99.90;;;;;;5024177;28;20092;-69
2023/07/20 06:54:45;;;;;;;0.10;0.10;;;16.30;99.90;;;;;;5022908;28;21057;-68
2023/07/20 06:57:10;;;;;;;0.10;0.10;;;16.20;99.90;;;;;;5027525;28;20044;-68
2023/07/20 06:59:36;;;;;;;0.00;0.00;;;16.20;99.90;;;;;;5034375;28;20094;-68
2023/07/20 07:02:02;;;;;;;0.00;0.00;;;16.20;99.90;;;;;;5026972;28;20124;-68
2023/07/20 07:04:28;;;;;;;0.00;0.00;;;16.30;99.90;;;;;;5030163;28;20458;-68
2023/07/20 07:06:53;;;;;;;0.00;0.00;;;16.40;99.90;;;;;;5023672;28;20099;-68
2023/07/20 07:09:20;;;;;;;0.00;0.00;;;16.40;99.90;;;;;;5024690;28;20045;-68
2023/07/20 07:11:46;;;;;;;0.20;0.20;;;16.50;99.90;;;;;;5020933;28;20080;-68
2023/07/20 07:14:12;;;;;;;0.00;0.00;;;16.50;99.90;;;;;;5027337;28;20081;-68
2023/07/20 07:16:38;;;;;;;0.00;0.00;;;16.60;99.90;;;;;;5032147;28;20033;-68
2023/07/20 07:19:05;;;;;;;0.00;0.00;;;16.60;99.90;;;;;;5027874;28;20133;-68
2023/07/20 07:21:31;;;;;;;0.00;0.00;;;16.60;99.90;;;;;;5022048;28;20045;-68
2023/07/20 07:23:57;;;;;;;0.90;0.45;;;16.50;99.90;;;;;;5024971;28;20089;-68
2023/07/20 07:26:24;;;;;;;0.00;0.00;;;16.50;99.90;;;;;;5032045;28;20141;-68
2023/07/20 07:28:49;;;;;;;0.00;0.00;;;16.50;99.90;;;;;;5016401;28;20092;-68
2023/07/20 07:31:15;;;;;;;0.00;0.00;;;16.50;99.90;;;;;;5029177;28;20053;-68
2023/07/20 07:33:41;;;;;;;0.03;0.03;;;16.60;99.90;;;;;;5031195;28;20044;-68
2023/07/20 07:36:07;;;;;;;0.00;0.00;;;16.70;99.90;;;;;;5029797;28;20047;-68
2023/07/20 07:38:32;;;;;;;0.00;0.00;;;16.80;99.90;;;;;;5033299;28;20120;-68
2023/07/20 07:40:59;;;;;;;0.15;0.15;;;17.00;99.90;;;;;;5027603;28;20149;-68
2023/07/20 07:43:24;;;;;;;0.20;0.20;;;17.20;99.90;;;;;;5029250;28;20040;-68
2023/07/20 07:45:50;;;;;;;0.00;0.00;;;17.30;99.90;;;;;;5031367;28;20095;-68
2023/07/20 07:48:15;;;;;;;0.20;0.20;;;17.40;99.90;;;;;;5024905;28;20227;-68
2023/07/20 07:50:41;;;;;;;0.00;0.00;;;17.50;99.90;;;;;;5029210;28;20378;-68
2023/07/20 07:53:08;;;;;;;0.10;0.10;;;17.60;99.90;;;;;;5029360;28;20432;-68
2023/07/20 07:55:35;;;;;;;0.00;0.00;;;17.60;99.90;;;;;;5019821;28;20084;-68
2023/07/20 07:58:01;;;;;;;0.10;0.10;;;17.40;99.90;;;;;;5030669;28;20092;-69
2023/07/20 08:00:26;;;;;;;0.00;0.00;;;17.30;99.90;;;;;;5019916;28;20038;-69
2023/07/20 08:02:52;;;;;;;0.00;0.00;;;17.30;99.90;;;;;;5027176;28;20041;-69
2023/07/20 08:05:17;;;;;;;0.00;0.00;;;17.30;99.90;;;;;;5028430;28;20049;-69
2023/07/20 08:07:43;;;;;;;0.03;0.03;;;17.40;99.90;;;;;;5023207;28;20037;-69
2023/07/20 08:10:09;;;;;;;3.25;0.63;;;17.60;99.90;;;;;;5017437;28;20050;-69
2023/07/20 08:12:35;;;;;;;0.13;0.13;;;17.70;99.90;;;;;;5026263;28;20033;-68
2023/07/20 08:15:01;;;;;;;0.10;0.10;;;17.90;99.90;;;;;;5029192;28;20447;-69
2023/07/20 08:17:27;;;;;;;0.00;0.00;;;18.00;99.90;;;;;;5022097;28;20484;-69
2023/07/20 08:19:52;;;;;;;0.00;0.00;;;17.90;99.90;;;;;;5021580;28;20064;-68
2023/07/20 08:22:18;;;;;;;0.00;0.00;;;17.80;99.90;;;;;;5025756;28;20077;-69
2023/07/20 08:24:43;;;;;;;0.00;0.00;;;17.70;99.90;;;;;;5021713;28;20673;-69
2023/07/20 08:27:10;;;;;;;0.00;0.00;;;17.60;99.90;;;;;;5026723;28;20052;-69
2023/07/20 08:29:36;;;;;;;0.20;0.20;;;17.60;99.90;;;;;;5027568;28;20045;-69
2023/07/20 08:32:03;;;;;;;0.00;0.00;;;17.70;99.90;;;;;;5023417;28;20062;-69
2023/07/20 08:34:28;;;;;;;0.00;0.00;;;17.90;99.90;;;;;;5017346;28;20046;-69
2023/07/20 08:36:54;;;;;;;0.30;0.30;;;18.00;99.90;;;;;;5020880;28;20539;-69
2023/07/20 08:39:22;;;;;;;0.00;0.00;;;18.10;99.90;;;;;;5026373;28;20049;-69
2023/07/20 08:41:48;;;;;;;0.00;0.00;;;18.20;99.90;;;;;;5017370;28;20082;-69
2023/07/20 08:44:14;;;;;;;0.00;0.00;;;18.20;99.90;;;;;;5021460;28;20041;-69
2023/07/20 08:46:42;;;;;;;0.57;0.52;;;18.30;99.90;;;;;;5020737;28;20046;-68
2023/07/20 08:49:08;;;;;;;0.00;0.00;;;18.40;99.90;;;;;;5018545;28;20053;-69
2023/07/20 08:51:35;;;;;;;0.00;0.00;;;18.50;99.90;;;;;;5023927;28;20079;-68
2023/07/20 08:54:02;;;;;;;0.00;0.00;;;18.50;99.90;;;;;;5017340;28;20054;-69
2023/07/20 08:56:29;;;;;;;0.00;0.00;;;18.60;99.90;;;;;;5015764;28;20492;-69
2023/07/20 08:58:54;;;;;;;0.00;0.00;;;18.50;99.90;;;;;;5028152;28;20549;-69
2023/07/20 09:01:21;;;;;;;0.00;0.00;;;18.50;99.90;;;;;;5017010;28;20105;-69
2023/07/20 09:03:49;;;;;;;0.00;0.00;;;18.30;99.90;;;;;;5022508;28;20048;-69
2023/07/20 09:06:15;;;;;;;0.30;0.30;;;18.20;99.90;;;;;;5022870;28;20046;-69
2023/07/20 09:08:42;;;;;;;0.45;0.45;;;18.10;99.90;;;;;;5011733;28;20084;-69
2023/07/20 09:11:11;;;;;;;0.05;0.05;;;17.90;99.90;;;;;;5014715;28;20056;-69
2023/07/20 09:13:38;;;;;;;0.00;0.00;;;17.80;99.90;;;;;;5018095;28;20467;-69
2023/07/20 09:16:04;;;;;;;0.00;0.00;;;17.90;99.90;;;;;;5018309;28;20075;-68
2023/07/20 09:18:31;;;;;;;0.00;0.00;;;18.10;99.90;;;;;;5019426;28;20123;-69
2023/07/20 09:21:06;;;;;;;0.00;0.00;;;18.20;99.90;;;;;;5026095;28;20045;-69
2023/07/20 09:23:33;;;;;;;0.00;0.00;;;18.40;99.90;;;;;;5016384;28;20076;-69
2023/07/20 09:26:00;;;;;;;0.28;0.10;;;18.60;99.90;;;;;;5029621;28;20049;-69
2023/07/20 09:28:26;;;;;;;0.00;0.00;;;18.80;99.90;;;;;;5024550;28;20104;-69
2023/07/20 09:30:54;;;;;;;0.10;0.10;;;18.70;99.90;;;;;;5020658;28;20054;-69
2023/07/20 09:33:22;;;;;;;3.38;1.35;;;18.60;99.90;;;;;;5026315;28;20111;-69
2023/07/20 09:35:48;;;;;;;0.00;0.00;;;18.50;99.90;;;;;;5020717;28;20451;-69
2023/07/20 09:38:14;;;;;;;0.20;0.20;;;18.40;99.90;;;;;;5019021;28;20052;-69
2023/07/20 09:40:41;;;;;;;0.35;0.35;;;18.30;99.90;;;;;;5024706;28;20220;-69
2023/07/20 09:43:10;;;;;;;0.00;0.00;;;18.40;99.90;;;;;;5022797;28;20058;-68
2023/07/20 09:45:43;;;;;;;0.30;0.30;;;18.50;99.90;;;;;;5020735;28;20087;-69
2023/07/20 09:48:11;;;;;;;0.25;0.25;;;18.80;99.90;;;;;;5029149;28;20578;-69
2023/07/20 09:50:49;;;;;;;0.10;0.10;;;19.30;99.90;;;;;;5023764;28;20073;-69
2023/07/20 09:53:17;;;;;;;0.00;0.00;;;19.90;99.90;;;;;;5019063;28;20138;-69
2023/07/20 09:55:44;;;;;;;0.15;0.15;;;20.50;99.90;;;;;;5018599;28;20068;-69
2023/07/20 09:58:10;;;;;;;4.55;0.50;;;20.80;99.90;;;;;;5027421;28;20508;-69
2023/07/20 10:00:38;;;;;;;0.00;0.00;;;20.80;99.90;;;;;;5033719;28;20049;-68
2023/07/20 10:03:05;;;;;;;0.00;0.00;;;21.00;99.90;;;;;;5010705;28;20053;-69
2023/07/20 10:05:35;;;;;;;0.20;0.20;;;20.80;99.90;;;;;;5017475;28;20049;-69
2023/07/20 10:08:04;;;;;;;0.00;0.00;;;20.50;99.90;;;;;;5019276;28;20050;-69
2023/07/20 10:10:32;;;;;;;0.00;0.00;;;20.00;99.90;;;;;;5018098;28;20042;-69
2023/07/20 10:13:00;;;;;;;0.05;0.05;;;19.60;99.90;;;;;;5015236;28;20053;-69
2023/07/20 10:15:50;;;;;;;0.00;0.00;;;19.90;99.90;;;;;;5023419;28;20038;-69
2023/07/20 10:18:30;;;;;;;0.10;0.10;;;20.50;99.90;;;;;;5022776;28;20116;-69
2023/07/20 10:20:59;;;;;;;0.55;0.30;;;20.80;99.90;;;;;;5017199;28;20544;-69
2023/07/20 10:23:28;;;;;;;0.93;0.73;;;21.20;99.90;;;;;;5022625;28;20453;-68
2023/07/20 10:25:54;;;;;;;0.22;0.20;;;21.60;99.90;;;;;;5021769;28;20119;-69
2023/07/20 10:28:20;;;;;;;0.25;0.25;;;21.80;99.90;;;;;;5026649;28;20493;-69
2023/07/20 10:30:46;;;;;;;0.32;0.32;;;22.00;99.90;;;;;;5020869;28;20112;-69
2023/07/20 10:33:12;;;;;;;0.00;0.00;;;22.20;99.90;;;;;;5028478;28;20441;-69
2023/07/20 10:36:03;;;;;;;0.57;0.32;;;21.70;99.90;;;;;;5021398;28;20029;-69
2023/07/20 10:38:42;;;;;;;0.00;0.00;;;21.20;99.90;;;;;;5025388;28;20055;-69
2023/07/20 10:41:25;;;;;;;0.00;0.00;;;20.90;99.90;;;;;;5023449;28;20046;-69
2023/07/20 10:43:57;;;;;;;0.00;0.00;;;20.50;99.90;;;;;;5021404;28;20045;-70
2023/07/20 10:46:43;;;;;;;0.20;0.20;;;20.30;99.90;;;;;;5022807;28;20062;-69
2023/07/20 10:49:10;;;;;;;0.93;0.90;;;20.10;99.90;;;;;;5015348;28;20041;-69
2023/07/20 10:51:49;;;;;;;0.05;0.05;;;20.00;99.90;;;;;;5017615;28;20493;-69
2023/07/20 10:54:17;;;;;;;0.00;0.00;;;19.90;99.90;;;;;;5016740;28;20486;-69
2023/07/20 10:56:44;;;;;;;0.00;0.00;;;19.80;99.90;;;;;;5030119;28;20053;-69
2023/07/20 10:59:23;;;;;;;0.10;0.10;;;19.80;99.90;;;;;;5025393;28;20041;-70
2023/07/20 11:01:51;;;;;;;0.13;0.13;;;19.80;99.90;;;;;;5017188;28;20042;-70
2023/07/20 11:04:20;;;;;;;0.10;0.10;;;19.70;99.90;;;;;;5024935;28;20046;-69
2023/07/20 11:06:46;;;;;;;0.00;0.00;;;19.60;99.90;;;;;;5028577;28;20049;-69
2023/07/20 11:09:14;;;;;;;0.00;0.00;;;19.50;99.90;;;;;;5020349;28;20041;-69
2023/07/20 11:11:49;;;;;;;0.00;0.00;;;19.60;99.90;;;;;;5018670;28;20045;-69
2023/07/20 11:14:25;;;;;;;0.05;0.05;;;20.20;99.90;;;;;;5025634;28;20041;-68
2023/07/20 11:16:52;;;;;;;0.10;0.10;;;20.70;99.90;;;;;;5015233;28;20409;-69
2023/07/20 11:19:25;;;;;;;0.98;0.35;;;21.20;99.90;;;;;;5023104;28;20042;-69
2023/07/20 11:21:52;;;;;;;0.00;0.00;;;21.40;99.90;;;;;;5012146;28;20073;-70
2023/07/20 11:24:18;;;;;;;0.20;0.20;;;21.60;99.90;;;;;;5032471;28;20136;-69
2023/07/20 11:26:50;;;;;;;2.00;0.75;;;21.70;99.90;;;;;;5030664;28;20389;-69
2023/07/20 11:29:17;;;;;;;0.00;0.00;;;21.70;99.90;;;;;;5021781;28;20062;-69
2023/07/20 11:31:44;;;;;;;0.40;0.13;;;21.50;99.90;;;;;;5027247;28;20064;-69
2023/07/20 11:34:15;;;;;;;0.15;0.15;;;21.80;99.90;;;;;;5030220;28;20037;-69
2023/07/20 11:36:49;;;;;;;0.00;0.00;;;22.00;99.90;;;;;;5019519;28;20076;-69
2023/07/20 11:39:16;;;;;;;0.00;0.00;;;22.30;99.90;;;;;;5029736;28;20485;-69
2023/07/20 11:41:52;;;;;;;0.00;0.00;;;22.60;99.90;;;;;;5024270;28;20081;-69
2023/07/20 11:44:29;;;;;;;0.00;0.00;;;22.80;99.90;;;;;;5019574;28;20095;-69
2023/07/20 11:47:11;;;;;;;0.60;0.60;;;22.60;99.90;;;;;;5026175;28;20068;-69
2023/07/20 11:49:42;;;;;;;0.00;0.00;;;22.90;99.90;;;;;;5021164;28;20045;-68
2023/07/20 11:52:10;;;;;;;0.00;0.00;;;23.00;99.90;;;;;;5020304;28;20103;-68
2023/07/20 11:54:38;;;;;;;0.20;0.20;;;23.20;99.90;;;;;;5029817;28;20049;-68
2023/07/20 11:57:07;;;;;;;0.10;0.10;;;23.20;99.90;;;;;;5025898;28;20135;-68
2023/07/20 11:59:33;;;;;;;0.38;0.32;;;23.50;99.90;;;;;;5019060;28;20064;-68
2023/07/20 12:02:03;;;;;;;0.10;0.10;;;23.60;99.90;;;;;;5024543;28;20077;-68
2023/07/20 12:04:28;;;;;;;0.00;0.00;;;23.60;99.90;;;;;;5025148;28;20121;-68
2023/07/20 12:06:55;;;;;;;0.00;0.00;;;23.80;99.90;;;;;;5023413;28;20561;-68
2023/07/20 12:09:21;;;;;;;0.20;0.10;;;24.00;99.90;;;;;;5022855;28;20112;-68
2023/07/20 12:11:49;;;;;;;0.00;0.00;;;24.10;99.90;;;;;;5026857;28;20056;-68
2023/07/20 12:14:15;;;;;;;0.10;0.10;;;24.10;99.90;;;;;;5027131;28;20488;-68
2023/07/20 12:16:41;;;;;;;0.20;0.20;;;24.10;99.90;;;;;;5029878;28;20041;-68
2023/07/20 12:19:09;;;;;;;0.00;0.00;;;24.20;99.90;;;;;;5024198;28;20129;-68
2023/07/20 12:21:37;;;;;;;0.00;0.00;;;24.20;99.50;;;;;;5021104;28;20033;-68
2023/07/20 12:24:04;;;;;;;0.20;0.10;;;24.20;99.10;;;;;;5028086;28;20382;-67
2023/07/20 12:26:31;;;;;;;0.00;0.00;;;24.20;99.40;;;;;;5028340;28;20049;-68
2023/07/20 12:28:57;;;;;;;0.00;0.00;;;24.40;99.90;;;;;;5017702;28;20057;-68
2023/07/20 12:31:25;;;;;;;0.00;0.00;;;24.60;99.30;;;;;;5025963;28;20512;-67
2023/07/20 12:33:51;;;;;;;0.00;0.00;;;24.60;99.00;;;;;;5032457;28;20412;-68
2023/07/20 12:36:17;;;;;;;0.00;0.00;;;24.80;99.10;;;;;;5014413;28;20136;-68
2023/07/20 12:38:43;;;;;;;0.00;0.00;;;24.70;98.60;;;;;;5035405;28;20037;-68
2023/07/20 12:41:13;;;;;;;0.00;0.00;;;24.70;98.10;;;;;;5027971;28;20045;-68
2023/07/20 12:43:38;;;;;;;0.00;0.00;;;24.80;99.00;;;;;;5029778;28;20382;-68
2023/07/20 12:46:05;;;;;;;0.00;0.00;;;25.00;98.90;;;;;;5022520;28;20390;-68
2023/07/20 12:48:31;;;;;;;0.10;0.10;;;24.90;97.80;;;;;;5020477;28;20054;-68